createdAt,value
2023-02-07T00:00:52.695Z,1.60
2023-02-07T00:03:19.014Z,1.53
2023-02-07T00:05:45.373Z,1.60
2023-02-07T00:08:11.728Z,1.40
2023-02-07T00:10:38.046Z,1.83
2023-02-07T00:13:06.333Z,1.73
2023-02-07T00:15:32.788Z,1.80
2023-02-07T00:17:59.138Z,1.50
2023-02-07T00:20:25.412Z,1.30
2023-02-07T00:22:52.144Z,1.37
2023-02-07T00:25:18.592Z,1.70
2023-02-07T00:27:44.992Z,1.50
2023-02-07T00:30:11.893Z,1.60
2023-02-07T00:32:38.182Z,1.40
2023-02-07T00:35:04.992Z,1.37
2023-02-07T00:37:31.352Z,1.70
2023-02-07T00:39:57.620Z,1.50
2023-02-07T00:42:23.942Z,1.90
2023-02-07T00:44:50.222Z,1.60
2023-02-07T00:47:16.693Z,1.50
2023-02-07T00:49:42.999Z,1.60
2023-02-07T00:52:09.350Z,1.80
2023-02-07T00:54:35.648Z,1.90
2023-02-07T00:57:01.926Z,1.70
2023-02-07T00:59:28.208Z,1.50
2023-02-07T01:01:54.535Z,1.40
2023-02-07T01:04:20.975Z,1.43
2023-02-07T01:06:47.329Z,1.50
2023-02-07T01:09:14.150Z,1.40
2023-02-07T01:11:40.473Z,1.73
2023-02-07T01:14:06.925Z,1.50
2023-02-07T01:16:35.802Z,1.30
2023-02-07T01:19:06.837Z,1.40
2023-02-07T01:21:33.410Z,1.40
2023-02-07T01:23:59.804Z,1.43
2023-02-07T01:26:26.582Z,1.47
2023-02-07T01:28:54.953Z,1.60
2023-02-07T01:31:22.227Z,1.50
2023-02-07T01:33:54.403Z,1.50
2023-02-07T01:36:21.173Z,1.50
2023-02-07T01:38:47.578Z,1.37
2023-02-07T01:41:14.358Z,1.70
2023-02-07T01:44:08.597Z,1.63
2023-02-07T01:46:35.790Z,1.37
2023-02-07T01:49:08.337Z,1.67
2023-02-07T01:51:35.830Z,1.70
2023-02-07T01:54:07.946Z,1.60
2023-02-07T01:56:37.655Z,1.40
2023-02-07T01:59:06.241Z,1.80
2023-02-07T02:01:33.063Z,1.60
2023-02-07T02:03:59.721Z,1.70
2023-02-07T02:06:29.623Z,1.73
2023-02-07T02:08:58.723Z,1.80
2023-02-07T02:11:46.670Z,1.80
2023-02-07T02:14:31.348Z,1.47
2023-02-07T02:17:03.702Z,1.60
2023-02-07T02:19:58.048Z,1.60
2023-02-07T02:22:36.468Z,1.60
2023-02-07T02:25:32.990Z,1.63
2023-02-07T02:28:27.166Z,1.90
2023-02-07T02:31:12.380Z,1.93
2023-02-07T02:33:45.140Z,2.30
2023-02-07T02:36:33.120Z,2.17
2023-02-07T02:39:10.149Z,2.07
2023-02-07T02:41:52.612Z,2.00
2023-02-07T02:44:26.436Z,2.17
2023-02-07T02:46:54.363Z,2.40
2023-02-07T02:49:21.767Z,2.07
2023-02-07T02:51:50.925Z,2.27
2023-02-07T02:54:32.422Z,2.17
2023-02-07T02:57:17.633Z,2.20
2023-02-07T03:00:13.219Z,2.07
2023-02-07T03:02:57.414Z,2.40
2023-02-07T03:05:36.005Z,2.00
2023-02-07T03:08:11.145Z,2.20
2023-02-07T03:10:57.297Z,2.07
2023-02-07T03:13:29.634Z,2.30
2023-02-07T03:16:16.061Z,2.67
2023-02-07T03:18:53.769Z,2.13
2023-02-07T03:21:27.400Z,2.10
2023-02-07T03:23:56.699Z,2.70
2023-02-07T03:26:24.988Z,2.70
2023-02-07T03:28:54.774Z,2.90
2023-02-07T03:31:24.785Z,2.77
2023-02-07T03:33:58.264Z,3.40
2023-02-07T03:36:37.245Z,3.73
2023-02-07T03:39:04.230Z,3.23
2023-02-07T03:41:35.796Z,3.07
2023-02-07T03:44:06.917Z,2.90
2023-02-07T03:46:37.639Z,3.13
2023-02-07T03:49:04.741Z,3.23
2023-02-07T03:51:31.141Z,2.90
2023-02-07T03:53:57.417Z,3.30
2023-02-07T03:56:23.779Z,3.50
2023-02-07T03:58:50.048Z,3.50
2023-02-07T04:01:16.489Z,3.60
2023-02-07T04:03:42.853Z,3.33
2023-02-07T04:06:09.362Z,3.90
2023-02-07T04:08:35.813Z,3.63
2023-02-07T04:11:04.121Z,3.87
2023-02-07T04:13:30.805Z,3.90
2023-02-07T04:15:57.351Z,3.67
2023-02-07T04:18:23.619Z,3.70
2023-02-07T04:20:49.892Z,3.73
2023-02-07T04:23:16.231Z,3.70
2023-02-07T04:25:42.597Z,3.67
2023-02-07T04:28:09.036Z,3.33
2023-02-07T04:30:35.455Z,3.40
2023-02-07T04:33:01.805Z,4.03
2023-02-07T04:35:28.101Z,3.50
2023-02-07T04:37:54.388Z,4.20
2023-02-07T04:40:20.731Z,4.47
2023-02-07T04:42:47.060Z,4.07
2023-02-07T04:45:13.424Z,4.17
2023-02-07T04:47:39.793Z,3.67
2023-02-07T04:50:06.440Z,3.90
2023-02-07T04:52:32.810Z,4.33
2023-02-07T04:54:59.165Z,4.00
2023-02-07T04:57:25.529Z,4.10
2023-02-07T04:59:51.800Z,3.77
2023-02-07T05:02:18.069Z,3.90
2023-02-07T05:04:44.453Z,4.60
2023-02-07T05:07:10.827Z,4.13
2023-02-07T05:09:37.093Z,3.80
2023-02-07T05:12:03.506Z,4.47
2023-02-07T05:14:29.883Z,4.67
2023-02-07T05:16:56.205Z,4.73
2023-02-07T05:19:22.494Z,4.43
2023-02-07T05:21:48.777Z,4.17
2023-02-07T05:24:15.049Z,3.70
2023-02-07T05:26:41.321Z,4.63
2023-02-07T05:29:07.681Z,4.50
2023-02-07T05:31:52.943Z,4.57
2023-02-07T05:34:19.305Z,4.33
2023-02-07T05:36:45.609Z,4.20
2023-02-07T05:39:11.901Z,4.20
2023-02-07T05:41:38.156Z,4.47
2023-02-07T05:44:04.520Z,4.50
2023-02-07T05:46:30.853Z,5.00
2023-02-07T05:48:57.217Z,4.87
2023-02-07T05:51:23.789Z,4.80
2023-02-07T05:53:50.098Z,4.83
2023-02-07T05:56:16.465Z,4.87
2023-02-07T05:58:42.785Z,3.83
2023-02-07T06:01:09.057Z,4.77
2023-02-07T06:03:35.397Z,4.97
2023-02-07T06:06:01.693Z,4.80
2023-02-07T06:08:28.077Z,4.87
2023-02-07T06:10:54.388Z,4.50
2023-02-07T06:13:20.747Z,4.50
2023-02-07T06:15:47.965Z,4.37
2023-02-07T06:18:14.333Z,4.93
2023-02-07T06:20:40.627Z,5.00
2023-02-07T06:23:06.960Z,4.77
2023-02-07T06:25:33.270Z,5.90
2023-02-07T06:28:00.726Z,5.70
2023-02-07T06:30:27.176Z,6.10
2023-02-07T06:32:53.506Z,5.67
2023-02-07T06:35:19.768Z,5.67
2023-02-07T06:37:46.151Z,5.67
2023-02-07T06:40:12.607Z,5.83
2023-02-07T06:42:38.870Z,5.77
2023-02-07T06:45:05.474Z,5.43
2023-02-07T06:47:31.817Z,6.83
2023-02-07T06:49:58.173Z,6.83
2023-02-07T06:52:24.502Z,7.07
2023-02-07T06:54:50.825Z,6.50
2023-02-07T06:57:17.136Z,6.57
2023-02-07T06:59:43.647Z,6.20
2023-02-07T07:02:12.801Z,5.73
2023-02-07T07:04:39.170Z,6.07
2023-02-07T07:07:05.643Z,6.63
2023-02-07T07:09:32.037Z,6.30
2023-02-07T07:11:58.420Z,6.67
2023-02-07T07:14:24.731Z,6.10
2023-02-07T07:16:51.493Z,5.60
2023-02-07T07:19:17.785Z,6.57
2023-02-07T07:21:44.057Z,6.87
2023-02-07T07:24:10.413Z,6.00
2023-02-07T07:26:48.371Z,6.70
2023-02-07T07:29:15.169Z,5.30
2023-02-07T07:31:41.438Z,6.43
2023-02-07T07:34:07.745Z,6.87
2023-02-07T07:36:34.142Z,6.50
2023-02-07T07:39:00.510Z,6.90
2023-02-07T07:41:26.821Z,7.70
2023-02-07T07:43:53.153Z,7.00
2023-02-07T07:46:19.511Z,7.57
2023-02-07T07:48:45.900Z,7.23
2023-02-07T07:51:12.316Z,7.67
2023-02-07T07:53:38.622Z,8.10
2023-02-07T07:56:05.260Z,8.03
2023-02-07T07:58:32.546Z,8.00
2023-02-07T08:00:58.823Z,7.70
2023-02-07T08:03:25.157Z,7.70
2023-02-07T08:05:51.673Z,8.53
2023-02-07T08:08:19.768Z,7.90
2023-02-07T08:10:47.265Z,8.13
2023-02-07T08:13:13.877Z,7.70
2023-02-07T08:15:40.337Z,7.90
2023-02-07T08:18:06.617Z,7.70
2023-02-07T08:20:32.973Z,8.50
2023-02-07T08:22:59.280Z,7.77
2023-02-07T08:25:28.536Z,7.50
2023-02-07T08:27:55.211Z,8.30
2023-02-07T08:30:21.751Z,6.43
2023-02-07T08:32:48.113Z,7.50
2023-02-07T08:35:17.019Z,8.60
2023-02-07T08:37:43.922Z,8.83
2023-02-07T08:40:10.674Z,8.00
2023-02-07T08:42:36.943Z,8.00
2023-02-07T08:45:05.474Z,8.10
2023-02-07T08:47:32.041Z,8.00
2023-02-07T08:49:58.383Z,9.97
2023-02-07T08:52:24.757Z,8.20
2023-02-07T08:54:51.158Z,9.33
2023-02-07T08:57:20.013Z,7.97
2023-02-07T08:59:46.302Z,8.43
2023-02-07T09:02:12.679Z,8.40
2023-02-07T09:04:41.392Z,8.23
2023-02-07T09:07:07.897Z,9.10
2023-02-07T09:09:34.249Z,7.50
2023-02-07T09:12:00.738Z,7.87
2023-02-07T09:14:27.345Z,7.90
2023-02-07T09:16:53.797Z,8.43
2023-02-07T09:19:20.071Z,7.10
2023-02-07T09:21:46.359Z,7.40
2023-02-07T09:24:12.624Z,7.27
2023-02-07T09:26:39.016Z,7.40
2023-02-07T09:29:06.666Z,7.77
2023-02-07T09:31:34.564Z,7.80
2023-02-07T09:34:02.565Z,7.37
2023-02-07T09:36:30.738Z,7.43
2023-02-07T09:38:58.412Z,7.60
2023-02-07T09:41:58.602Z,7.93
2023-02-07T09:44:45.774Z,7.37
2023-02-07T09:47:20.325Z,7.40
2023-02-07T09:50:01.096Z,7.40
2023-02-07T09:52:38.680Z,8.00
2023-02-07T09:55:06.359Z,7.80
2023-02-07T09:57:37.493Z,7.90
2023-02-07T10:00:18.260Z,7.63
2023-02-07T10:02:55.523Z,6.97
2023-02-07T10:05:28.800Z,8.53
2023-02-07T10:07:57.607Z,7.67
2023-02-07T10:10:38.616Z,7.43
2023-02-07T10:13:28.150Z,7.50
2023-02-07T10:15:57.437Z,7.97
2023-02-07T10:18:39.945Z,8.00
2023-02-07T10:21:23.811Z,8.10
2023-02-07T10:24:01.620Z,8.43
2023-02-07T10:26:46.948Z,8.40
2023-02-07T10:29:29.268Z,6.80
2023-02-07T10:32:01.154Z,7.37
2023-02-07T10:34:37.696Z,7.47
2023-02-07T10:37:18.058Z,7.67
2023-02-07T10:39:51.226Z,8.00
2023-02-07T10:42:17.996Z,8.23
2023-02-07T10:44:44.329Z,7.47
2023-02-07T10:47:16.459Z,8.27
2023-02-07T10:49:45.396Z,8.40
2023-02-07T10:52:17.423Z,8.20
2023-02-07T10:54:53.138Z,7.80
2023-02-07T10:57:21.375Z,7.43
2023-02-07T10:59:50.286Z,8.40
2023-02-07T11:02:31.939Z,8.07
2023-02-07T11:05:23.718Z,7.60
2023-02-07T11:08:03.987Z,7.73
2023-02-07T11:10:37.172Z,7.80
2023-02-07T11:13:05.866Z,8.40
2023-02-07T11:15:49.573Z,8.00
2023-02-07T11:18:31.282Z,7.03
2023-02-07T11:20:57.672Z,7.57
2023-02-07T11:23:25.181Z,8.20
2023-02-07T11:25:55.052Z,8.30
2023-02-07T11:28:25.959Z,7.90
2023-02-07T11:30:59.427Z,7.80
2023-02-07T11:33:28.364Z,8.00
2023-02-07T11:36:04.639Z,7.70
2023-02-07T11:38:31.816Z,8.70
2023-02-07T11:41:04.071Z,8.00
2023-02-07T11:43:30.381Z,7.40
2023-02-07T11:46:03.365Z,8.30
2023-02-07T11:48:34.168Z,8.27
2023-02-07T11:51:04.007Z,8.73
2023-02-07T11:53:39.512Z,8.37
2023-02-07T11:56:08.673Z,8.73
2023-02-07T11:58:37.884Z,8.13
2023-02-07T12:01:06.786Z,7.73
2023-02-07T12:03:40.779Z,8.50
2023-02-07T12:06:14.014Z,7.80
2023-02-07T12:08:41.864Z,7.83
2023-02-07T12:11:24.030Z,7.87
2023-02-07T12:13:55.485Z,8.00
2023-02-07T12:16:28.510Z,7.53
2023-02-07T12:19:03.965Z,7.67
2023-02-07T12:21:47.691Z,7.53
2023-02-07T12:24:22.849Z,7.43
2023-02-07T12:26:58.678Z,7.87
2023-02-07T12:29:46.066Z,7.77
2023-02-07T12:32:42.465Z,8.27
2023-02-07T12:35:39.236Z,8.17
2023-02-07T12:38:27.888Z,7.23
2023-02-07T12:41:16.851Z,7.70
2023-02-07T12:44:14.014Z,7.00
2023-02-07T12:47:04.851Z,7.90
2023-02-07T12:49:37.535Z,7.10
2023-02-07T12:52:13.098Z,8.17
2023-02-07T12:54:57.550Z,7.90
2023-02-07T12:57:38.527Z,7.77
2023-02-07T13:00:12.205Z,7.50
2023-02-07T13:02:38.556Z,7.73
2023-02-07T13:05:23.739Z,7.50
2023-02-07T13:07:59.234Z,7.80
2023-02-07T13:10:41.256Z,8.17
2023-02-07T13:13:29.885Z,8.30
2023-02-07T13:16:03.733Z,7.60
2023-02-07T13:18:34.786Z,7.60
2023-02-07T13:21:33.982Z,7.83
2023-02-07T13:24:02.752Z,7.80
2023-02-07T13:26:31.535Z,7.67
2023-02-07T13:29:01.828Z,8.40
2023-02-07T13:31:40.706Z,7.53
2023-02-07T13:34:31.574Z,7.30
2023-02-07T13:37:08.048Z,7.37
2023-02-07T13:40:18.023Z,7.33
2023-02-07T13:43:09.272Z,7.37
2023-02-07T13:46:05.661Z,7.00
2023-02-07T13:48:54.709Z,7.37
2023-02-07T13:51:36.506Z,7.73
2023-02-07T13:54:28.356Z,7.13
2023-02-07T13:57:18.339Z,6.73
2023-02-07T14:00:07.488Z,7.13
2023-02-07T14:02:41.899Z,6.63
2023-02-07T14:05:11.966Z,6.43
2023-02-07T14:07:39.304Z,7.17
2023-02-07T14:10:06.364Z,7.03
2023-02-07T14:12:40.565Z,7.37
2023-02-07T14:15:30.390Z,7.30
2023-02-07T14:18:06.461Z,7.77
2023-02-07T14:20:35.765Z,7.27
2023-02-07T14:23:08.111Z,6.43
2023-02-07T14:25:34.667Z,7.07
2023-02-07T14:28:31.919Z,6.87
2023-02-07T14:31:07.619Z,7.53
2023-02-07T14:33:39.398Z,6.90
2023-02-07T14:36:14.758Z,7.77
2023-02-07T14:39:01.831Z,7.40
2023-02-07T14:41:33.714Z,6.93
2023-02-07T14:44:09.528Z,7.57
2023-02-07T14:46:49.312Z,6.87
2023-02-07T14:49:38.264Z,6.93
2023-02-07T14:52:11.303Z,6.77
2023-02-07T14:54:40.341Z,7.07
2023-02-07T14:57:25.430Z,7.40
2023-02-07T15:00:10.569Z,7.10
2023-02-07T15:02:58.891Z,6.80
2023-02-07T15:05:38.139Z,7.17
2023-02-07T15:08:24.879Z,7.50
2023-02-07T15:11:00.895Z,7.40
2023-02-07T15:13:29.675Z,7.50
2023-02-07T15:16:00.622Z,7.23
2023-02-07T15:18:30.738Z,7.83
2023-02-07T15:20:58.865Z,7.10
2023-02-07T15:23:28.381Z,8.03
2023-02-07T15:25:55.061Z,7.30
2023-02-07T15:28:27.631Z,8.47
2023-02-07T15:31:03.280Z,7.83
2023-02-07T15:33:51.075Z,6.40
2023-02-07T15:36:36.569Z,7.20
2023-02-07T15:39:07.263Z,7.13
2023-02-07T15:41:36.545Z,7.20
2023-02-07T15:44:06.629Z,7.57
2023-02-07T15:46:46.140Z,6.13
2023-02-07T15:49:36.159Z,6.67
2023-02-07T15:52:24.811Z,6.47
2023-02-07T15:54:53.472Z,8.33
2023-02-07T15:57:41.350Z,7.33
2023-02-07T16:00:19.299Z,7.30
2023-02-07T16:02:55.527Z,7.87
2023-02-07T16:05:24.295Z,10.77
2023-02-07T16:07:52.573Z,7.70
2023-02-07T16:10:33.105Z,8.80
2023-02-07T16:13:20.449Z,7.60
2023-02-07T16:16:07.282Z,7.13
2023-02-07T16:18:36.391Z,7.57
2023-02-07T16:21:04.800Z,9.90
2023-02-07T16:23:31.121Z,7.50
2023-02-07T16:25:58.497Z,6.80
2023-02-07T16:28:24.955Z,8.20
2023-02-07T16:30:51.607Z,6.17
2023-02-07T16:33:17.888Z,6.40
2023-02-07T16:35:44.301Z,5.97
2023-02-07T16:38:10.586Z,6.20
2023-02-07T16:40:37.335Z,6.67
2023-02-07T16:43:06.671Z,7.00
2023-02-07T16:45:33.148Z,7.20
2023-02-07T16:47:59.772Z,6.40
2023-02-07T16:50:27.873Z,7.53
2023-02-07T16:52:59.361Z,7.57
2023-02-07T16:55:28.036Z,8.57
2023-02-07T16:57:56.412Z,8.90
2023-02-07T17:00:25.975Z,9.33
2023-02-07T17:02:53.544Z,9.17
2023-02-07T17:05:22.228Z,7.93
2023-02-07T17:07:49.838Z,8.50
2023-02-07T17:10:24.869Z,7.60
2023-02-07T17:12:51.165Z,6.87
2023-02-07T17:15:17.872Z,6.73
2023-02-07T17:17:44.284Z,6.43
2023-02-07T17:20:28.709Z,6.57
2023-02-07T17:22:55.606Z,6.40
2023-02-07T17:25:24.101Z,6.80
2023-02-07T17:27:50.499Z,7.57
2023-02-07T17:30:19.792Z,6.60
2023-02-07T17:32:46.302Z,6.70
2023-02-07T17:35:13.456Z,6.33
2023-02-07T17:37:40.060Z,7.20
2023-02-07T17:40:32.905Z,6.93
2023-02-07T17:42:59.632Z,6.33
2023-02-07T17:45:27.829Z,6.43
2023-02-07T17:47:56.534Z,6.80
2023-02-07T17:50:29.644Z,6.57
2023-02-07T17:52:57.229Z,6.23
2023-02-07T17:55:24.314Z,6.77
2023-02-07T17:57:50.618Z,7.20
2023-02-07T18:00:18.823Z,6.77
2023-02-07T18:02:47.516Z,6.60
2023-02-07T18:05:15.784Z,7.10
2023-02-07T18:07:43.051Z,6.00
2023-02-07T18:10:12.168Z,6.80
2023-02-07T18:12:38.455Z,6.80
2023-02-07T18:15:05.666Z,7.33
2023-02-07T18:17:31.970Z,6.93
2023-02-07T18:19:58.302Z,6.53
2023-02-07T18:22:24.648Z,6.47
2023-02-07T18:24:50.973Z,7.03
2023-02-07T18:27:18.388Z,7.23
2023-02-07T18:29:45.382Z,6.67
2023-02-07T18:32:12.470Z,8.30
2023-02-07T18:34:39.688Z,7.27
2023-02-07T18:37:06.369Z,7.97
2023-02-07T18:39:33.117Z,7.77
2023-02-07T18:41:59.507Z,6.80
2023-02-07T18:44:25.782Z,6.87
2023-02-07T18:46:52.062Z,6.30
2023-02-07T18:49:18.372Z,7.23
2023-02-07T18:51:44.730Z,6.40
2023-02-07T18:54:11.078Z,6.57
2023-02-07T18:56:37.674Z,5.83
2023-02-07T18:59:04.940Z,6.33
2023-02-07T19:01:31.453Z,5.53
2023-02-07T19:04:01.332Z,5.20
2023-02-07T19:06:30.836Z,5.60
2023-02-07T19:08:57.474Z,11.00
2023-02-07T19:11:24.458Z,10.17
2023-02-07T19:13:50.821Z,9.87
2023-02-07T19:16:20.309Z,9.83
2023-02-07T19:18:47.743Z,8.83
2023-02-07T19:21:21.512Z,8.57
2023-02-07T19:23:47.819Z,7.50
2023-02-07T19:26:14.077Z,7.37
2023-02-07T19:28:40.547Z,7.50
2023-02-07T19:31:11.001Z,7.63
2023-02-07T19:33:37.323Z,7.77
2023-02-07T19:36:08.541Z,8.13
2023-02-07T19:38:34.914Z,8.53
2023-02-07T19:41:01.837Z,7.87
2023-02-07T19:43:28.156Z,7.23
2023-02-07T19:45:54.552Z,6.43
2023-02-07T19:48:22.296Z,6.53
2023-02-07T19:50:56.780Z,6.80
2023-02-07T19:53:23.103Z,6.20
2023-02-07T19:55:49.710Z,5.87
2023-02-07T19:58:16.063Z,6.20
2023-02-07T20:00:43.132Z,6.10
2023-02-07T20:03:09.450Z,6.33
2023-02-07T20:05:35.745Z,7.07
2023-02-07T20:08:02.057Z,6.70
2023-02-07T20:10:28.327Z,6.43
2023-02-07T20:12:54.581Z,6.17
2023-02-07T20:15:20.868Z,6.17
2023-02-07T20:17:48.229Z,6.63
2023-02-07T20:20:15.013Z,6.53
2023-02-07T20:22:41.338Z,6.67
2023-02-07T20:25:08.096Z,6.53
2023-02-07T20:27:34.402Z,6.10
2023-02-07T20:30:00.693Z,6.90
2023-02-07T20:32:26.994Z,6.80
2023-02-07T20:34:53.356Z,7.27
2023-02-07T20:37:19.728Z,7.37
2023-02-07T20:39:46.552Z,6.57
2023-02-07T20:42:12.897Z,6.87
2023-02-07T20:44:39.175Z,6.67
2023-02-07T20:47:05.618Z,6.73
2023-02-07T20:49:32.087Z,6.37
2023-02-07T20:51:59.237Z,7.10
2023-02-07T20:54:27.646Z,6.40
2023-02-07T20:56:54.891Z,7.70
2023-02-07T20:59:29.675Z,7.00
2023-02-07T21:01:56.828Z,6.20
2023-02-07T21:04:24.152Z,7.43
2023-02-07T21:06:50.618Z,6.93
2023-02-07T21:09:18.143Z,7.57
2023-02-07T21:11:46.767Z,7.60
2023-02-07T21:14:17.326Z,7.50
2023-02-07T21:16:44.021Z,7.83
2023-02-07T21:19:10.932Z,8.80
2023-02-07T21:21:37.622Z,7.33
2023-02-07T21:24:04.540Z,7.13
2023-02-07T21:26:30.793Z,7.57
2023-02-07T21:28:58.836Z,7.50
2023-02-07T21:31:25.234Z,6.80
2023-02-07T21:33:51.840Z,7.77
2023-02-07T21:36:23.808Z,8.47
2023-02-07T21:38:52.249Z,8.10
2023-02-07T21:41:22.154Z,7.90
2023-02-07T21:43:48.889Z,8.17
2023-02-07T21:46:21.734Z,7.80
2023-02-07T21:48:50.315Z,8.17
2023-02-07T21:51:21.912Z,7.70
2023-02-07T21:53:50.034Z,7.80
2023-02-07T21:56:20.611Z,7.53
2023-02-07T21:58:47.849Z,7.43
2023-02-07T22:01:19.845Z,6.00
2023-02-07T22:03:48.024Z,7.20
2023-02-07T22:06:16.441Z,7.63
2023-02-07T22:08:48.234Z,6.87
2023-02-07T22:11:14.574Z,7.33
2023-02-07T22:13:43.113Z,7.67
2023-02-07T22:16:11.730Z,7.23
2023-02-07T22:18:38.454Z,7.13
2023-02-07T22:21:10.542Z,7.43
2023-02-07T22:23:36.819Z,7.00
2023-02-07T22:26:03.369Z,7.60
2023-02-07T22:28:30.014Z,6.20
2023-02-07T22:30:56.509Z,6.03
2023-02-07T22:33:22.858Z,6.23
2023-02-07T22:35:49.227Z,6.60
2023-02-07T22:38:15.539Z,6.93
2023-02-07T22:40:43.200Z,6.77
2023-02-07T22:43:16.573Z,6.07
2023-02-07T22:45:45.838Z,5.83
2023-02-07T22:48:14.480Z,6.10
2023-02-07T22:50:41.681Z,5.53
2023-02-07T22:53:08.307Z,6.50
2023-02-07T22:55:34.598Z,6.20
2023-02-07T22:58:00.885Z,6.30
2023-02-07T23:00:27.207Z,7.03
2023-02-07T23:02:53.472Z,6.40
2023-02-07T23:05:19.822Z,6.37
2023-02-07T23:07:46.469Z,6.83
2023-02-07T23:10:12.762Z,7.10
2023-02-07T23:12:39.255Z,7.10
2023-02-07T23:15:06.776Z,7.27
2023-02-07T23:17:33.134Z,7.20
2023-02-07T23:19:59.567Z,6.17
2023-02-07T23:22:26.033Z,6.97
2023-02-07T23:24:54.730Z,6.97
2023-02-07T23:27:21.328Z,7.20
2023-02-07T23:29:47.607Z,7.00
2023-02-07T23:32:13.930Z,6.70
2023-02-07T23:34:40.372Z,7.30
2023-02-07T23:37:06.687Z,7.77
2023-02-07T23:39:32.998Z,7.23
2023-02-07T23:41:59.325Z,6.33
2023-02-07T23:44:25.600Z,6.90
2023-02-07T23:46:52.108Z,6.20
2023-02-07T23:49:18.376Z,6.30
2023-02-07T23:51:45.516Z,6.60
2023-02-07T23:54:12.593Z,6.33
2023-02-07T23:56:38.932Z,6.20
2023-02-07T23:59:05.225Z,5.93
